Time,TemperatureF,DewpointF,PressureIn,WindDirection,WindDirectionDegrees,WindSpeedMPH,WindSpeedGustMPH,Humidity,HourlyPrecipIn,Conditions,Clouds,dailyrainin,SoftwareType,DateUTC
2013-07-09 00:01:00,75.0,55.0,31.03,South,181,13.0,16.0,50,0.00,,,0.00,meteohub,2013-07-09 04:01:00,
2013-07-09 00:02:00,75.0,55.6,31.03,South,186,8.0,15.0,51,0.00,,,0.00,meteohub,2013-07-09 04:02:00,
2013-07-09 00:03:00,75.0,55.6,31.03,South,180,8.0,15.0,51,0.00,,,0.00,meteohub,2013-07-09 04:03:00,
2013-07-09 00:05:00,75.0,55.6,31.03,South,190,11.0,15.0,51,0.00,,,0.00,meteohub,2013-07-09 04:05:00,
2013-07-09 00:06:00,75.0,55.6,31.03,SSW,208,6.0,13.0,51,0.00,,,0.00,meteohub,2013-07-09 04:06:00,
2013-07-09 00:11:00,74.5,54.1,31.03,SW,221,7.0,11.0,49,0.00,,,0.00,meteohub,2013-07-09 04:11:00,
2013-07-09 00:17:00,74.1,54.3,31.03,SW,228,4.0,11.0,50,0.00,,,0.00,meteohub,2013-07-09 04:17:00,
2013-07-09 00:22:00,73.9,54.1,31.03,SW,225,3.0,8.0,50,0.00,,,0.00,meteohub,2013-07-09 04:22:00,
2013-07-09 00:27:00,73.8,54.0,31.03,West,279,4.0,8.0,50,0.00,,,0.00,meteohub,2013-07-09 04:27:00,
2013-07-09 00:32:00,73.8,54.5,31.03,WSW,251,6.0,8.0,51,0.00,,,0.00,meteohub,2013-07-09 04:32:00,
2013-07-09 00:37:00,73.4,53.1,31.03,SW,229,4.0,7.0,49,0.00,,,0.00,meteohub,2013-07-09 04:37:00,
2013-07-09 00:42:00,73.2,54.0,31.03,SSW,213,4.0,7.0,51,0.00,,,0.00,meteohub,2013-07-09 04:42:00,
2013-07-09 00:48:00,73.2,54.0,31.03,SW,215,2.0,7.0,51,0.00,,,0.00,meteohub,2013-07-09 04:48:00,
2013-07-09 00:53:00,73.2,54.0,31.03,SSW,212,5.0,6.0,51,0.00,,,0.00,meteohub,2013-07-09 04:53:00,
2013-07-09 00:58:00,73.2,54.5,31.03,SSW,213,4.0,5.0,52,0.00,,,0.00,meteohub,2013-07-09 04:58:00,
2013-07-09 01:03:00,73.4,54.7,31.03,SSW,212,2.0,5.0,52,0.00,,,0.00,meteohub,2013-07-09 05:03:00,
2013-07-09 01:09:00,73.4,54.7,31.03,SW,219,0.0,5.0,52,0.00,,,0.00,meteohub,2013-07-09 05:09:00,
2013-07-09 01:14:00,73.4,54.7,31.03,SW,230,3.0,5.0,52,0.00,,,0.00,meteohub,2013-07-09 05:14:00,
2013-07-09 01:19:00,73.2,54.5,31.03,SW,233,4.0,4.0,52,0.00,,,0.00,meteohub,2013-07-09 05:19:00,
2013-07-09 01:24:00,73.0,54.9,31.03,SSW,213,4.0,4.0,53,0.00,,,0.00,meteohub,2013-07-09 05:24:00,
2013-07-09 01:30:00,73.0,54.9,31.03,SW,215,4.0,4.0,53,0.00,,,0.00,meteohub,2013-07-09 05:30:00,
2013-07-09 01:35:00,73.0,54.9,31.03,SW,215,3.0,4.0,53,0.00,,,0.00,meteohub,2013-07-09 05:35:00,
2013-07-09 01:40:00,73.2,55.0,31.03,SW,215,0.0,4.0,53,0.00,,,0.00,meteohub,2013-07-09 05:40:00,
2013-07-09 01:45:00,73.2,55.0,31.03,SW,215,0.0,4.0,53,0.00,,,0.00,meteohub,2013-07-09 05:45:00,
2013-07-09 01:50:00,73.2,55.0,31.03,SW,215,4.0,4.0,53,0.00,,,0.00,meteohub,2013-07-09 05:50:00,
2013-07-09 01:56:00,73.2,55.0,31.03,South,181,6.0,6.0,53,0.00,,,0.00,meteohub,2013-07-09 05:56:00,
2013-07-09 02:01:00,73.8,56.1,31.03,South,177,13.0,13.0,54,0.00,,,0.00,meteohub,2013-07-09 06:01:00,
2013-07-09 02:06:00,74.3,57.0,31.03,South,170,11.0,11.0,55,0.00,,,0.00,meteohub,2013-07-09 06:06:00,
2013-07-09 02:11:00,74.7,57.9,31.03,South,182,11.0,13.0,56,0.00,,,0.00,meteohub,2013-07-09 06:11:00,
2013-07-09 02:16:00,74.8,58.1,31.03,SSE,160,13.0,13.0,56,0.00,,,0.00,meteohub,2013-07-09 06:16:00,
2013-07-09 02:22:00,74.8,58.1,31.03,South,180,14.0,15.0,56,0.00,,,0.00,meteohub,2013-07-09 06:22:00,
2013-07-09 02:27:00,74.8,58.6,31.03,South,183,11.0,15.0,57,0.00,,,0.00,meteohub,2013-07-09 06:27:00,
2013-07-09 02:32:00,75.2,59.0,31.03,SSW,195,10.0,15.0,57,0.00,,,0.00,meteohub,2013-07-09 06:32:00,
2013-07-09 02:37:00,75.0,58.8,31.03,SSW,193,11.0,15.0,57,0.00,,,0.00,meteohub,2013-07-09 06:37:00,
2013-07-09 02:42:00,74.8,58.6,31.03,South,172,8.0,13.0,57,0.00,,,0.00,meteohub,2013-07-09 06:42:00,
2013-07-09 02:47:00,74.3,57.6,31.03,SSW,206,4.0,13.0,56,0.00,,,0.00,meteohub,2013-07-09 06:47:00,
2013-07-09 02:53:00,74.1,56.5,31.03,WSW,253,5.0,13.0,54,0.00,,,0.00,meteohub,2013-07-09 06:53:00,
2013-07-09 02:58:00,73.6,55.9,31.03,SW,234,5.0,13.0,54,0.00,,,0.00,meteohub,2013-07-09 06:58:00,
2013-07-09 03:03:00,73.4,55.2,31.03,West,264,4.0,8.0,53,0.00,,,0.00,meteohub,2013-07-09 07:03:00,
2013-07-09 03:09:00,73.2,55.6,31.03,West,264,4.0,8.0,54,0.00,,,0.00,meteohub,2013-07-09 07:09:00,
2013-07-09 03:14:00,73.2,55.6,31.03,West,266,3.0,8.0,54,0.00,,,0.00,meteohub,2013-07-09 07:14:00,
2013-07-09 03:19:00,73.0,55.4,31.03,WSW,254,7.0,8.0,54,0.00,,,0.00,meteohub,2013-07-09 07:19:00,
2013-07-09 03:24:00,72.7,55.0,31.03,WSW,249,3.0,8.0,54,0.00,,,0.00,meteohub,2013-07-09 07:24:00,
2013-07-09 03:30:00,72.7,55.0,31.03,West,268,6.0,9.0,54,0.00,,,0.00,meteohub,2013-07-09 07:30:00,
2013-07-09 03:35:00,72.7,55.0,31.03,West,273,4.0,9.0,54,0.00,,,0.00,meteohub,2013-07-09 07:35:00,
2013-07-09 03:40:00,72.5,54.9,31.03,WSW,245,2.0,8.0,54,0.00,,,0.00,meteohub,2013-07-09 07:40:00,
2013-07-09 03:45:00,72.5,55.4,31.03,WSW,243,5.0,8.0,55,0.00,,,0.00,meteohub,2013-07-09 07:45:00,
2013-07-09 03:52:00,72.7,55.6,31.03,West,275,4.0,8.0,55,0.00,,,0.00,meteohub,2013-07-09 07:52:00,
2013-07-09 03:58:00,72.7,55.6,31.03,West,268,5.0,6.0,55,0.00,,,0.00,meteohub,2013-07-09 07:58:00,
2013-07-09 04:03:00,72.7,55.6,31.03,West,265,0.0,6.0,55,0.00,,,0.00,meteohub,2013-07-09 08:03:00,
2013-07-09 04:08:00,72.7,55.6,31.03,West,265,0.0,6.0,55,0.00,,,0.00,meteohub,2013-07-09 08:08:00,
2013-07-09 04:13:00,72.9,55.8,31.03,WNW,288,4.0,6.0,55,0.00,,,0.00,meteohub,2013-07-09 08:13:00,
2013-07-09 04:19:00,72.7,55.6,31.03,West,273,3.0,5.0,55,0.00,,,0.00,meteohub,2013-07-09 08:19:00,
2013-07-09 04:24:00,72.9,55.8,31.03,West,274,0.0,5.0,55,0.00,,,0.00,meteohub,2013-07-09 08:24:00,
2013-07-09 04:29:00,72.9,55.8,31.03,West,275,2.0,4.0,55,0.00,,,0.00,meteohub,2013-07-09 08:29:00,
2013-07-09 04:34:00,72.9,55.8,31.03,WNW,289,3.0,4.0,55,0.00,,,0.00,meteohub,2013-07-09 08:34:00,
2013-07-09 04:39:00,72.9,55.8,31.03,WNW,289,2.0,4.0,55,0.00,,,0.00,meteohub,2013-07-09 08:39:00,
2013-07-09 04:44:00,73.0,56.5,31.03,WNW,289,3.0,4.0,56,0.00,,,0.00,meteohub,2013-07-09 08:44:00,
2013-07-09 04:50:00,73.0,56.5,31.03,WNW,290,0.0,4.0,56,0.00,,,0.00,meteohub,2013-07-09 08:50:00,
2013-07-09 04:55:00,73.0,56.5,31.03,WNW,290,0.0,4.0,56,0.00,,,0.00,meteohub,2013-07-09 08:55:00,
2013-07-09 05:00:00,73.0,56.5,31.03,WNW,289,0.0,4.0,56,0.00,,,0.00,meteohub,2013-07-09 09:00:00,
2013-07-09 05:05:00,73.0,56.5,31.03,WNW,289,0.0,4.0,56,0.00,,,0.00,meteohub,2013-07-09 09:05:00,
2013-07-09 05:11:00,73.0,56.5,31.03,WNW,289,0.0,0.0,56,0.00,,,0.00,meteohub,2013-07-09 09:11:00,
2013-07-09 05:16:00,73.2,56.7,31.03,WNW,289,0.0,0.0,56,0.00,,,0.00,meteohub,2013-07-09 09:16:00,
2013-07-09 05:21:00,73.2,56.7,31.03,WNW,289,0.0,0.0,56,0.00,,,0.00,meteohub,2013-07-09 09:21:00,
2013-07-09 05:26:00,73.2,56.7,31.03,WNW,289,3.0,0.0,56,0.00,,,0.00,meteohub,2013-07-09 09:26:00,
2013-07-09 05:32:00,73.2,56.7,31.03,West,261,3.0,0.0,56,0.00,,,0.00,meteohub,2013-07-09 09:32:00,
2013-07-09 05:37:00,73.2,56.7,31.03,WSW,247,4.0,4.0,56,0.00,,,0.00,meteohub,2013-07-09 09:37:00,
2013-07-09 05:42:00,73.2,56.7,31.03,WNW,286,4.0,5.0,56,0.00,,,0.00,meteohub,2013-07-09 09:42:00,
2013-07-09 05:47:00,73.2,56.7,31.03,West,271,5.0,5.0,56,0.00,,,0.00,meteohub,2013-07-09 09:47:00,
2013-07-09 05:53:00,73.0,56.5,31.03,WNW,282,5.0,5.0,56,0.00,,,0.00,meteohub,2013-07-09 09:53:00,
2013-07-09 05:58:00,73.0,56.5,31.03,NW,312,4.0,5.0,56,0.00,,,0.00,meteohub,2013-07-09 09:58:00,
2013-07-09 06:03:00,73.0,56.5,31.03,West,262,3.0,7.0,56,0.00,,,0.00,meteohub,2013-07-09 10:03:00,
2013-07-09 06:09:00,72.9,56.3,31.03,WSW,257,6.0,7.0,56,0.00,,,0.00,meteohub,2013-07-09 10:09:00,
2013-07-09 06:14:00,72.7,56.1,31.03,West,259,5.0,7.0,56,0.00,,,0.00,meteohub,2013-07-09 10:14:00,
2013-07-09 06:19:00,72.7,56.1,31.03,West,270,5.0,6.0,56,0.00,,,0.00,meteohub,2013-07-09 10:19:00,
2013-07-09 06:25:00,72.7,56.5,31.03,WNW,287,3.0,6.0,57,0.00,,,0.00,meteohub,2013-07-09 10:25:00,
2013-07-09 06:30:00,72.7,56.1,31.03,West,276,6.0,6.0,56,0.00,,,0.00,meteohub,2013-07-09 10:30:00,
2013-07-09 06:35:00,72.7,56.1,31.03,WNW,282,6.0,7.0,56,0.00,,,0.00,meteohub,2013-07-09 10:35:00,
2013-07-09 06:40:00,72.7,56.5,31.03,West,271,4.0,7.0,57,0.00,,,0.00,meteohub,2013-07-09 10:40:00,
2013-07-09 06:46:00,72.7,56.5,31.03,West,260,4.0,8.0,57,0.00,,,0.00,meteohub,2013-07-09 10:46:00,
2013-07-09 06:51:00,72.7,56.5,31.03,WNW,288,3.0,8.0,57,0.00,,,0.00,meteohub,2013-07-09 10:51:00,
2013-07-09 06:56:00,72.7,56.5,31.03,West,274,5.0,7.0,57,0.00,,,0.00,meteohub,2013-07-09 10:56:00,
2013-07-09 07:02:00,72.9,56.7,31.03,WSW,253,4.0,7.0,57,0.00,,,0.00,meteohub,2013-07-09 11:02:00,
2013-07-09 07:07:00,72.9,56.7,31.03,West,270,5.0,7.0,57,0.00,,,0.00,meteohub,2013-07-09 11:07:00,
2013-07-09 07:12:00,72.9,56.7,31.03,WSW,258,3.0,6.0,57,0.00,,,0.00,meteohub,2013-07-09 11:12:00,
2013-07-09 07:17:00,73.0,56.8,31.03,West,263,3.0,6.0,57,0.00,,,0.00,meteohub,2013-07-09 11:17:00,
2013-07-09 07:23:00,73.0,56.8,31.03,West,263,0.0,5.0,57,0.00,,,0.00,meteohub,2013-07-09 11:23:00,
2013-07-09 07:28:00,73.2,57.6,31.03,West,263,2.0,5.0,58,0.00,,,0.00,meteohub,2013-07-09 11:28:00,
2013-07-09 07:33:00,73.4,57.2,31.03,WNW,287,4.0,5.0,57,0.00,,,0.00,meteohub,2013-07-09 11:33:00,
2013-07-09 07:38:00,73.8,57.6,31.03,NW,315,3.0,3.0,57,0.00,,,0.00,meteohub,2013-07-09 11:38:00,
2013-07-09 07:44:00,73.8,57.6,31.03,NW,316,0.0,4.0,57,0.00,,,0.00,meteohub,2013-07-09 11:44:00,
2013-07-09 07:49:00,73.8,57.6,31.03,NW,316,0.0,4.0,57,0.00,,,0.00,meteohub,2013-07-09 11:49:00,
2013-07-09 07:54:00,73.9,57.7,31.03,NW,316,0.0,4.0,57,0.00,,,0.00,meteohub,2013-07-09 11:54:00,
2013-07-09 08:00:00,73.9,57.7,31.03,NW,316,0.0,0.0,57,0.00,,,0.00,meteohub,2013-07-09 12:00:00,
2013-07-09 08:05:00,73.9,57.2,31.03,West,273,3.0,0.0,56,0.00,,,0.00,meteohub,2013-07-09 12:05:00,
2013-07-09 08:10:00,74.1,57.9,31.03,WNW,289,4.0,4.0,57,0.00,,,0.00,meteohub,2013-07-09 12:10:00,
2013-07-09 08:15:00,74.1,57.4,31.03,WSW,244,6.0,6.0,56,0.00,,,0.00,meteohub,2013-07-09 12:15:00,
2013-07-09 08:21:00,73.8,56.1,31.03,WSW,250,6.0,6.0,54,0.00,,,0.00,meteohub,2013-07-09 12:21:00,
2013-07-09 08:26:00,73.8,56.1,31.03,WNW,284,6.0,7.0,54,0.00,,,0.00,meteohub,2013-07-09 12:26:00,
2013-07-09 08:32:00,74.1,56.5,31.03,West,268,6.0,7.0,54,0.00,,,0.00,meteohub,2013-07-09 12:32:00,
2013-07-09 08:37:00,74.3,56.7,31.03,NW,317,4.0,7.0,54,0.00,,,0.00,meteohub,2013-07-09 12:37:00,
2013-07-09 08:42:00,74.1,55.9,31.03,WNW,282,0.0,7.0,53,0.00,,,0.00,meteohub,2013-07-09 12:42:00,
2013-07-09 08:47:00,73.8,55.0,31.03,WSW,239,4.0,8.0,52,0.00,,,0.00,meteohub,2013-07-09 12:47:00,
2013-07-09 08:52:00,73.6,55.4,31.03,WSW,245,4.0,8.0,53,0.00,,,0.00,meteohub,2013-07-09 12:52:00,
2013-07-09 08:57:00,73.9,55.8,31.03,WNW,288,4.0,8.0,53,0.00,,,0.00,meteohub,2013-07-09 12:57:00,
2013-07-09 09:02:00,74.3,56.7,31.03,WNW,292,6.0,6.0,54,0.00,,,0.00,meteohub,2013-07-09 13:02:00,
2013-07-09 09:07:00,74.3,55.6,31.03,SW,236,5.0,6.0,52,0.00,,,0.00,meteohub,2013-07-09 13:07:00,
2013-07-09 09:12:00,74.1,54.9,31.03,WNW,302,2.0,6.0,51,0.00,,,0.00,meteohub,2013-07-09 13:12:00,
2013-07-09 09:17:00,74.5,55.8,31.03,WNW,282,6.0,6.0,52,0.00,,,0.00,meteohub,2013-07-09 13:17:00,
2013-07-09 09:22:00,74.8,56.1,31.03,WNW,284,5.0,6.0,52,0.00,,,0.00,meteohub,2013-07-09 13:22:00,
2013-07-09 09:27:00,75.0,56.1,31.03,WNW,286,3.0,6.0,52,0.00,,,0.00,meteohub,2013-07-09 13:27:00,
2013-07-09 09:33:00,74.7,54.9,31.03,WSW,246,3.0,6.0,50,0.00,,,0.00,meteohub,2013-07-09 13:33:00,
2013-07-09 09:38:00,74.5,54.1,31.03,WSW,239,5.0,6.0,49,0.00,,,0.00,meteohub,2013-07-09 13:38:00,
2013-07-09 09:43:00,74.3,54.0,31.03,West,263,3.0,8.0,49,0.00,,,0.00,meteohub,2013-07-09 13:43:00,
2013-07-09 09:49:00,74.7,54.9,31.03,NNW,338,3.0,8.0,50,0.00,,,0.00,meteohub,2013-07-09 13:49:00,
2013-07-09 09:54:00,74.3,53.4,31.03,NW,312,3.0,8.0,48,0.00,,,0.00,meteohub,2013-07-09 13:54:00,
2013-07-09 09:59:00,74.5,54.1,31.03,West,267,3.0,6.0,49,0.00,,,0.00,meteohub,2013-07-09 13:59:00,
2013-07-09 10:04:00,74.8,54.3,31.03,West,262,3.0,6.0,49,0.00,,,0.00,meteohub,2013-07-09 14:04:00,
2013-07-09 10:10:00,75.2,54.1,31.03,WNW,283,5.0,6.0,48,0.00,,,0.00,meteohub,2013-07-09 14:10:00,
2013-07-09 10:15:00,75.6,54.5,31.03,NW,308,4.0,8.0,48,0.00,,,0.00,meteohub,2013-07-09 14:15:00,
2013-07-09 10:20:00,75.4,53.2,31.03,SW,229,3.0,8.0,46,0.00,,,0.00,meteohub,2013-07-09 14:20:00,
2013-07-09 10:25:00,75.7,53.4,31.03,NNW,330,4.0,8.0,46,0.00,,,0.00,meteohub,2013-07-09 14:25:00,
2013-07-09 10:31:00,75.9,53.1,31.03,SSW,208,0.0,8.0,45,0.00,,,0.00,meteohub,2013-07-09 14:31:00,
2013-07-09 10:36:00,75.7,52.3,31.03,WNW,301,4.0,6.0,44,0.00,,,0.00,meteohub,2013-07-09 14:36:00,
2013-07-09 10:41:00,75.9,52.5,31.03,WNW,290,4.0,6.0,44,0.00,,,0.00,meteohub,2013-07-09 14:41:00,
2013-07-09 10:47:00,75.9,51.8,31.03,West,278,6.0,6.0,43,0.00,,,0.00,meteohub,2013-07-09 14:47:00,
2013-07-09 10:52:00,75.9,51.8,31.03,West,264,2.0,6.0,43,0.00,,,0.00,meteohub,2013-07-09 14:52:00,
2013-07-09 10:57:00,75.7,51.6,31.03,WNW,290,5.0,6.0,43,0.00,,,0.00,meteohub,2013-07-09 14:57:00,
2013-07-09 11:02:00,75.4,51.3,31.03,SSW,209,4.0,6.0,43,0.00,,,0.00,meteohub,2013-07-09 15:02:00,
2013-07-09 11:07:00,75.6,51.4,31.03,WSW,238,3.0,6.0,43,0.00,,,0.00,meteohub,2013-07-09 15:07:00,
2013-07-09 11:12:00,75.4,51.3,31.03,SW,235,0.0,6.0,43,0.00,,,0.00,meteohub,2013-07-09 15:12:00,
2013-07-09 11:17:00,75.6,51.4,31.03,SW,233,3.0,5.0,43,0.00,,,0.00,meteohub,2013-07-09 15:17:00,
2013-07-09 11:22:00,75.2,50.5,31.03,West,269,4.0,4.0,42,0.00,,,0.00,meteohub,2013-07-09 15:22:00,
2013-07-09 11:27:00,75.4,51.3,31.03,WSW,250,0.0,5.0,43,0.00,,,0.00,meteohub,2013-07-09 15:27:00,
2013-07-09 11:32:00,75.6,51.4,31.03,WSW,250,0.0,5.0,43,0.00,,,0.00,meteohub,2013-07-09 15:32:00,
2013-07-09 11:37:00,75.6,51.4,31.03,WSW,250,3.0,5.0,43,0.00,,,0.00,meteohub,2013-07-09 15:37:00,
2013-07-09 11:42:00,75.7,51.6,31.03,WSW,253,0.0,4.0,43,0.00,,,0.00,meteohub,2013-07-09 15:42:00,
2013-07-09 11:48:00,75.9,51.8,31.03,West,267,0.0,4.0,43,0.00,,,0.00,meteohub,2013-07-09 15:48:00,
2013-07-09 11:53:00,75.6,50.2,31.03,NNE,19,3.0,4.0,41,0.00,,,0.00,meteohub,2013-07-09 15:53:00,
2013-07-09 11:59:00,75.9,50.5,31.03,ESE,114,4.0,5.0,41,0.00,,,0.00,meteohub,2013-07-09 15:59:00,
2013-07-09 12:04:00,76.1,50.7,31.03,ESE,112,2.0,5.0,41,0.00,,,0.00,meteohub,2013-07-09 16:04:00,
2013-07-09 12:09:00,76.6,51.3,31.03,SE,124,3.0,5.0,41,0.00,,,0.00,meteohub,2013-07-09 16:09:00,
2013-07-09 12:14:00,76.6,51.3,31.03,SE,140,4.0,5.0,41,0.00,,,0.00,meteohub,2013-07-09 16:14:00,
2013-07-09 12:19:00,76.5,49.6,31.03,ESE,114,2.0,5.0,39,0.00,,,0.00,meteohub,2013-07-09 16:19:00,
2013-07-09 12:25:00,76.3,50.2,31.03,SE,127,3.0,5.0,40,0.00,,,0.00,meteohub,2013-07-09 16:25:00,
2013-07-09 12:30:00,75.7,49.6,31.03,WNW,294,6.0,6.0,40,0.00,,,0.00,meteohub,2013-07-09 16:30:00,
2013-07-09 12:35:00,75.7,50.4,31.03,WSW,238,6.0,8.0,41,0.00,,,0.00,meteohub,2013-07-09 16:35:00,
2013-07-09 12:41:00,75.7,50.4,31.03,WSW,250,3.0,9.0,41,0.00,,,0.00,meteohub,2013-07-09 16:41:00,
2013-07-09 12:46:00,75.4,49.5,31.03,West,274,8.0,9.0,40,0.00,,,0.00,meteohub,2013-07-09 16:46:00,
2013-07-09 12:51:00,75.2,49.8,31.03,WNW,290,6.0,9.0,41,0.00,,,0.00,meteohub,2013-07-09 16:51:00,
2013-07-09 12:56:00,75.4,50.0,31.03,West,268,4.0,9.0,41,0.00,,,0.00,meteohub,2013-07-09 16:56:00,
2013-07-09 13:02:00,75.4,50.0,31.03,West,261,4.0,9.0,41,0.00,,,0.00,meteohub,2013-07-09 17:02:00,
2013-07-09 13:07:00,74.5,49.8,31.03,WSW,241,4.0,8.0,42,0.00,,,0.00,meteohub,2013-07-09 17:07:00,
2013-07-09 13:12:00,74.3,50.4,31.03,WSW,245,6.0,9.0,43,0.00,,,0.00,meteohub,2013-07-09 17:12:00,
2013-07-09 13:17:00,74.5,50.5,31.03,SW,233,5.0,9.0,43,0.00,,,0.00,meteohub,2013-07-09 17:17:00,
2013-07-09 13:22:00,74.7,51.3,31.03,West,264,7.0,8.0,44,0.00,,,0.00,meteohub,2013-07-09 17:22:00,
2013-07-09 13:27:00,74.8,50.9,31.03,West,271,8.0,8.0,43,0.00,,,0.00,meteohub,2013-07-09 17:27:00,
2013-07-09 13:32:00,75.2,50.5,31.03,WSW,258,4.0,9.0,42,0.00,,,0.00,meteohub,2013-07-09 17:32:00,
2013-07-09 13:37:00,75.2,49.8,31.03,WNW,299,6.0,9.0,41,0.00,,,0.00,meteohub,2013-07-09 17:37:00,
2013-07-09 13:42:00,75.7,50.4,31.03,WNW,289,7.0,8.0,41,0.00,,,0.00,meteohub,2013-07-09 17:42:00,
2013-07-09 13:47:00,76.1,50.0,31.03,WSW,254,5.0,8.0,40,0.00,,,0.00,meteohub,2013-07-09 17:47:00,
2013-07-09 13:52:00,76.3,48.7,31.03,WNW,284,6.0,8.0,38,0.00,,,0.00,meteohub,2013-07-09 17:52:00,
2013-07-09 13:58:00,76.5,48.9,31.03,WNW,297,6.0,8.0,38,0.00,,,0.00,meteohub,2013-07-09 17:58:00,
2013-07-09 14:03:00,76.6,48.4,31.03,WSW,257,4.0,8.0,37,0.00,,,0.00,meteohub,2013-07-09 18:03:00,
2013-07-09 14:08:00,75.9,47.1,31.03,West,263,6.0,8.0,36,0.00,,,0.00,meteohub,2013-07-09 18:08:00,
2013-07-09 14:13:00,75.9,48.6,31.03,West,259,8.0,8.0,38,0.00,,,0.00,meteohub,2013-07-09 18:13:00,
2013-07-09 14:19:00,75.4,47.3,31.03,SW,224,6.0,8.0,37,0.00,,,0.00,meteohub,2013-07-09 18:19:00,
2013-07-09 14:24:00,75.7,49.1,31.03,WNW,283,7.0,8.0,39,0.00,,,0.00,meteohub,2013-07-09 18:24:00,
2013-07-09 14:29:00,75.6,48.2,31.03,West,260,6.0,8.0,38,0.00,,,0.00,meteohub,2013-07-09 18:29:00,
2013-07-09 14:34:00,75.7,47.7,31.03,WSW,254,5.0,8.0,37,0.00,,,0.00,meteohub,2013-07-09 18:34:00,
2013-07-09 14:40:00,75.6,48.2,31.03,West,265,5.0,9.0,38,0.00,,,0.00,meteohub,2013-07-09 18:40:00,
2013-07-09 14:45:00,76.3,48.7,31.03,WSW,251,5.0,9.0,38,0.00,,,0.00,meteohub,2013-07-09 18:45:00,
2013-07-09 14:50:00,77.2,48.2,31.03,NW,310,5.0,9.0,36,0.00,,,0.00,meteohub,2013-07-09 18:50:00,
2013-07-09 14:55:00,77.2,47.5,31.03,WNW,289,6.0,9.0,35,0.00,,,0.00,meteohub,2013-07-09 18:55:00,
2013-07-09 15:00:00,77.2,46.6,31.03,West,271,4.0,9.0,34,0.00,,,0.00,meteohub,2013-07-09 19:00:00,
2013-07-09 15:06:00,76.8,45.5,31.03,NNW,335,3.0,9.0,33,0.00,,,0.00,meteohub,2013-07-09 19:06:00,
2013-07-09 15:11:00,76.6,46.2,31.03,WNW,302,4.0,9.0,34,0.00,,,0.00,meteohub,2013-07-09 19:11:00,
2013-07-09 15:16:00,76.5,46.0,31.03,NW,309,0.0,9.0,34,0.00,,,0.00,meteohub,2013-07-09 19:16:00,
2013-07-09 15:21:00,76.6,46.2,31.03,NNW,341,4.0,6.0,34,0.00,,,0.00,meteohub,2013-07-09 19:21:00,
2013-07-09 15:26:00,76.5,46.0,31.03,NW,312,0.0,6.0,34,0.00,,,0.00,meteohub,2013-07-09 19:26:00,
2013-07-09 15:31:00,76.3,45.9,31.03,NW,320,0.0,5.0,34,0.00,,,0.00,meteohub,2013-07-09 19:31:00,
2013-07-09 15:37:00,75.9,45.5,31.03,SSW,211,0.0,5.0,34,0.00,,,0.00,meteohub,2013-07-09 19:37:00,
2013-07-09 15:42:00,75.7,46.2,31.03,SSW,211,0.0,4.0,35,0.00,,,0.00,meteohub,2013-07-09 19:42:00,
2013-07-09 15:47:00,75.7,46.2,31.03,SSW,211,0.0,4.0,35,0.00,,,0.00,meteohub,2013-07-09 19:47:00,
2013-07-09 15:52:00,75.6,46.8,31.03,ESE,105,3.0,4.0,36,0.00,,,0.00,meteohub,2013-07-09 19:52:00,
2013-07-09 15:57:00,75.6,46.8,31.03,SE,140,3.0,4.0,36,0.00,,,0.00,meteohub,2013-07-09 19:57:00,
2013-07-09 16:02:00,75.7,46.9,31.03,SE,142,0.0,4.0,36,0.00,,,0.00,meteohub,2013-07-09 20:02:00,
2013-07-09 16:07:00,76.3,48.0,31.03,South,190,0.0,4.0,37,0.00,,,0.00,meteohub,2013-07-09 20:07:00,
2013-07-09 16:12:00,76.5,47.5,31.03,SSE,168,3.0,4.0,36,0.00,,,0.00,meteohub,2013-07-09 20:12:00,
2013-07-09 16:17:00,76.5,46.8,31.03,SE,145,3.0,4.0,35,0.00,,,0.00,meteohub,2013-07-09 20:17:00,
2013-07-09 16:22:00,76.3,46.6,31.03,SE,139,3.0,5.0,35,0.00,,,0.00,meteohub,2013-07-09 20:22:00,
2013-07-09 16:28:00,76.1,46.4,31.03,SE,139,3.0,5.0,35,0.00,,,0.00,meteohub,2013-07-09 20:28:00,
2013-07-09 16:33:00,76.1,49.3,31.03,ENE,65,6.0,6.0,39,0.00,,,0.00,meteohub,2013-07-09 20:33:00,
2013-07-09 16:38:00,75.6,50.2,31.03,NE,51,8.0,8.0,41,0.00,,,0.00,meteohub,2013-07-09 20:38:00,
2013-07-09 16:44:00,75.6,52.7,31.03,NE,36,8.0,8.0,45,0.00,,,0.00,meteohub,2013-07-09 20:44:00,
2013-07-09 16:49:00,75.0,52.9,31.03,NE,51,5.0,9.0,46,0.00,,,0.00,meteohub,2013-07-09 20:49:00,
2013-07-09 16:54:00,74.8,53.2,31.03,NE,45,6.0,9.0,47,0.00,,,0.00,meteohub,2013-07-09 20:54:00,
2013-07-09 16:59:00,74.5,53.4,31.03,ENE,71,5.0,9.0,48,0.00,,,0.00,meteohub,2013-07-09 20:59:00,
2013-07-09 17:05:00,74.7,54.3,31.03,NNE,31,5.0,6.0,49,0.00,,,0.00,meteohub,2013-07-09 21:05:00,
2013-07-09 17:10:00,74.7,54.3,31.03,NE,40,5.0,6.0,49,0.00,,,0.00,meteohub,2013-07-09 21:10:00,
2013-07-09 17:15:00,74.7,54.3,31.03,NE,45,4.0,6.0,49,0.00,,,0.00,meteohub,2013-07-09 21:15:00,
2013-07-09 17:20:00,74.7,54.9,31.03,East,86,4.0,6.0,50,0.00,,,0.00,meteohub,2013-07-09 21:20:00,
2013-07-09 17:25:00,74.8,54.3,31.03,NE,43,3.0,6.0,49,0.00,,,0.00,meteohub,2013-07-09 21:25:00,
2013-07-09 17:31:00,74.7,54.3,31.03,NE,47,2.0,5.0,49,0.00,,,0.00,meteohub,2013-07-09 21:31:00,
2013-07-09 17:36:00,74.7,54.3,31.03,NE,47,0.0,4.0,49,0.00,,,0.00,meteohub,2013-07-09 21:36:00,
2013-07-09 17:41:00,74.8,54.3,31.03,ENE,72,4.0,4.0,49,0.00,,,0.00,meteohub,2013-07-09 21:41:00,
2013-07-09 17:46:00,74.7,53.6,31.03,ENE,66,3.0,4.0,48,0.00,,,0.00,meteohub,2013-07-09 21:46:00,
2013-07-09 17:52:00,74.7,53.6,31.03,East,81,0.0,4.0,48,0.00,,,0.00,meteohub,2013-07-09 21:52:00,
2013-07-09 17:57:00,74.7,53.6,31.03,NE,39,3.0,4.0,48,0.00,,,0.00,meteohub,2013-07-09 21:57:00,
2013-07-09 18:02:00,74.8,53.8,31.03,North,353,3.0,4.0,48,0.00,,,0.00,meteohub,2013-07-09 22:02:00,
2013-07-09 18:07:00,74.7,53.1,31.03,ENE,61,3.0,4.0,47,0.00,,,0.00,meteohub,2013-07-09 22:07:00,
2013-07-09 18:12:00,74.7,53.1,31.03,ENE,60,3.0,4.0,47,0.00,,,0.00,meteohub,2013-07-09 22:12:00,
2013-07-09 18:17:00,74.5,52.9,31.03,ENE,67,4.0,4.0,47,0.00,,,0.00,meteohub,2013-07-09 22:17:00,
2013-07-09 18:22:00,74.7,53.6,31.03,NE,37,4.0,5.0,48,0.00,,,0.00,meteohub,2013-07-09 22:22:00,
2013-07-09 18:28:00,74.7,53.1,31.03,ENE,65,4.0,5.0,47,0.00,,,0.00,meteohub,2013-07-09 22:28:00,
2013-07-09 18:33:00,74.5,52.9,31.03,NNE,24,4.0,5.0,47,0.00,,,0.00,meteohub,2013-07-09 22:33:00,
2013-07-09 18:38:00,74.7,53.6,31.03,NE,52,3.0,5.0,48,0.00,,,0.00,meteohub,2013-07-09 22:38:00,
2013-07-09 18:43:00,74.5,52.9,31.03,NE,47,3.0,5.0,47,0.00,,,0.00,meteohub,2013-07-09 22:43:00,
2013-07-09 18:48:00,74.5,53.4,31.03,NE,52,2.0,5.0,48,0.00,,,0.00,meteohub,2013-07-09 22:48:00,
2013-07-09 18:54:00,74.7,53.6,31.03,North,2,4.0,4.0,48,0.00,,,0.00,meteohub,2013-07-09 22:54:00,
2013-07-09 18:59:00,74.7,53.6,31.03,NE,53,3.0,4.0,48,0.00,,,0.00,meteohub,2013-07-09 22:59:00,
2013-07-09 19:04:00,74.7,53.6,31.03,NE,43,3.0,4.0,48,0.00,,,0.00,meteohub,2013-07-09 23:04:00,
2013-07-09 19:09:00,74.7,53.6,31.03,NNE,20,3.0,4.0,48,0.00,,,0.00,meteohub,2013-07-09 23:09:00,
2013-07-09 19:14:00,74.7,53.6,31.03,NNE,23,4.0,4.0,48,0.00,,,0.00,meteohub,2013-07-09 23:14:00,
2013-07-09 19:20:00,74.7,53.6,31.03,NNE,25,5.0,5.0,48,0.00,,,0.00,meteohub,2013-07-09 23:20:00,
2013-07-09 19:25:00,74.5,54.1,31.03,NNE,15,5.0,6.0,49,0.00,,,0.00,meteohub,2013-07-09 23:25:00,
2013-07-09 19:31:00,74.3,54.0,31.03,NNE,26,7.0,7.0,49,0.00,,,0.00,meteohub,2013-07-09 23:31:00,
2013-07-09 19:36:00,74.1,53.8,31.03,NE,41,5.0,7.0,49,0.00,,,0.00,meteohub,2013-07-09 23:36:00,
2013-07-09 19:41:00,74.1,54.3,31.03,NNE,30,6.0,9.0,50,0.00,,,0.00,meteohub,2013-07-09 23:41:00,
2013-07-09 19:46:00,74.1,54.3,31.03,NE,34,8.0,9.0,50,0.00,,,0.00,meteohub,2013-07-09 23:46:00,
2013-07-09 19:52:00,73.9,54.7,31.03,NNE,29,5.0,9.0,51,0.00,,,0.00,meteohub,2013-07-09 23:52:00,
2013-07-09 19:57:00,73.8,55.0,31.03,NNE,18,8.0,9.0,52,0.00,,,0.00,meteohub,2013-07-09 23:57:00,
2013-07-09 20:02:00,73.6,55.4,31.03,NE,45,8.0,9.0,53,0.00,,,0.00,meteohub,2013-07-10 00:02:00,
2013-07-09 20:07:00,73.6,55.4,31.03,NNE,20,6.0,9.0,53,0.00,,,0.00,meteohub,2013-07-10 00:07:00,
2013-07-09 20:12:00,73.4,55.2,31.03,NNE,13,8.0,9.0,53,0.00,,,0.00,meteohub,2013-07-10 00:12:00,
2013-07-09 20:17:00,73.4,55.8,31.03,NNE,24,5.0,9.0,54,0.00,,,0.00,meteohub,2013-07-10 00:17:00,
2013-07-09 20:22:00,73.6,55.9,31.03,NNE,15,8.0,9.0,54,0.00,,,0.00,meteohub,2013-07-10 00:22:00,
2013-07-09 20:27:00,73.4,55.8,31.03,North,3,5.0,9.0,54,0.00,,,0.00,meteohub,2013-07-10 00:27:00,
2013-07-09 20:32:00,73.4,55.8,31.03,NNE,15,5.0,8.0,54,0.00,,,0.00,meteohub,2013-07-10 00:32:00,
2013-07-09 20:37:00,73.6,55.9,31.03,North,5,5.0,8.0,54,0.00,,,0.00,meteohub,2013-07-10 00:37:00,
2013-07-09 20:42:00,73.6,55.9,31.03,North,4,4.0,8.0,54,0.00,,,0.00,meteohub,2013-07-10 00:42:00,
2013-07-09 20:47:00,73.6,55.9,31.03,North,357,4.0,8.0,54,0.00,,,0.00,meteohub,2013-07-10 00:47:00,
2013-07-09 20:52:00,73.6,55.9,31.03,NE,41,4.0,6.0,54,0.00,,,0.00,meteohub,2013-07-10 00:52:00,
2013-07-09 20:57:00,73.6,55.9,31.03,North,3,4.0,6.0,54,0.00,,,0.00,meteohub,2013-07-10 00:57:00,
2013-07-09 21:02:00,73.4,55.2,31.03,NNE,27,6.0,7.0,53,0.00,,,0.00,meteohub,2013-07-10 01:02:00,
2013-07-09 21:07:00,73.4,55.2,31.03,NE,36,4.0,8.0,53,0.00,,,0.00,meteohub,2013-07-10 01:07:00,
2013-07-09 21:12:00,73.4,55.8,31.03,North,9,5.0,8.0,54,0.00,,,0.00,meteohub,2013-07-10 01:12:00,
2013-07-09 21:17:00,73.4,55.8,31.03,NE,40,6.0,8.0,54,0.00,,,0.00,meteohub,2013-07-10 01:17:00,
2013-07-09 21:22:00,73.4,55.8,31.03,NNE,19,6.0,8.0,54,0.00,,,0.00,meteohub,2013-07-10 01:22:00,
2013-07-09 21:27:00,73.4,55.8,31.03,NNE,32,6.0,8.0,54,0.00,,,0.00,meteohub,2013-07-10 01:27:00,
2013-07-09 21:32:00,73.2,56.1,31.03,NNE,27,6.0,9.0,55,0.00,,,0.00,meteohub,2013-07-10 01:32:00,
2013-07-09 21:38:00,73.2,56.7,31.03,NE,44,6.0,9.0,56,0.00,,,0.00,meteohub,2013-07-10 01:38:00,
2013-07-09 21:43:00,73.2,56.7,31.03,NNE,33,8.0,9.0,56,0.00,,,0.00,meteohub,2013-07-10 01:43:00,
2013-07-09 21:48:00,73.2,57.0,31.03,NNE,22,8.0,9.0,57,0.00,,,0.00,meteohub,2013-07-10 01:48:00,
2013-07-09 21:53:00,73.2,57.0,31.03,NNE,26,5.0,9.0,57,0.00,,,0.00,meteohub,2013-07-10 01:53:00,
2013-07-09 21:58:00,73.2,57.0,31.03,North,3,6.0,9.0,57,0.00,,,0.00,meteohub,2013-07-10 01:58:00,
2013-07-09 22:04:00,73.0,56.8,31.03,NNE,22,6.0,9.0,57,0.00,,,0.00,meteohub,2013-07-10 02:04:00,
2013-07-09 22:09:00,73.0,56.8,31.03,NNE,20,8.0,9.0,57,0.00,,,0.00,meteohub,2013-07-10 02:09:00,
2013-07-09 22:14:00,73.0,56.8,31.03,North,2,8.0,9.0,57,0.00,,,0.00,meteohub,2013-07-10 02:14:00,
2013-07-09 22:19:00,73.2,57.0,31.03,North,357,4.0,9.0,57,0.00,,,0.00,meteohub,2013-07-10 02:19:00,
2013-07-09 22:25:00,73.2,57.0,31.03,North,6,4.0,8.0,57,0.00,,,0.00,meteohub,2013-07-10 02:25:00,
2013-07-09 22:31:00,73.2,57.0,31.03,North,11,6.0,8.0,57,0.00,,,0.00,meteohub,2013-07-10 02:31:00,
2013-07-09 22:36:00,73.2,57.0,31.03,North,353,4.0,7.0,57,0.00,,,0.00,meteohub,2013-07-10 02:36:00,
2013-07-09 22:41:00,73.2,57.0,31.03,North,357,4.0,7.0,57,0.00,,,0.00,meteohub,2013-07-10 02:41:00,
2013-07-09 22:46:00,73.2,57.0,31.03,NNE,27,5.0,7.0,57,0.00,,,0.00,meteohub,2013-07-10 02:46:00,
2013-07-09 22:51:00,73.4,57.7,31.03,NNE,27,6.0,8.0,58,0.00,,,0.00,meteohub,2013-07-10 02:51:00,
2013-07-09 22:57:00,73.4,57.2,31.03,NNE,12,8.0,8.0,57,0.00,,,0.00,meteohub,2013-07-10 02:57:00,
2013-07-09 23:02:00,73.4,57.7,31.03,NNE,27,6.0,10.0,58,0.00,,,0.00,meteohub,2013-07-10 03:02:00,
2013-07-09 23:07:00,73.4,57.7,31.03,NNE,32,6.0,10.0,58,0.00,,,0.00,meteohub,2013-07-10 03:07:00,
2013-07-09 23:12:00,73.2,58.1,31.03,NNE,23,8.0,9.0,59,0.00,,,0.00,meteohub,2013-07-10 03:12:00,
2013-07-09 23:17:00,73.2,58.5,31.03,NE,34,7.0,9.0,60,0.00,,,0.00,meteohub,2013-07-10 03:17:00,
2013-07-09 23:22:00,73.2,58.5,31.03,NNE,29,6.0,9.0,60,0.00,,,0.00,meteohub,2013-07-10 03:22:00,
2013-07-09 23:27:00,73.2,59.0,31.03,North,7,5.0,9.0,61,0.00,,,0.00,meteohub,2013-07-10 03:27:00,
2013-07-09 23:32:00,73.2,58.5,31.03,NE,42,6.0,9.0,60,0.00,,,0.00,meteohub,2013-07-10 03:32:00,
2013-07-09 23:37:00,73.2,59.0,31.03,NNE,17,9.0,9.0,61,0.00,,,0.00,meteohub,2013-07-10 03:37:00,
2013-07-09 23:42:00,73.2,58.5,31.03,NNE,30,8.0,9.0,60,0.00,,,0.00,meteohub,2013-07-10 03:42:00,
2013-07-09 23:47:00,73.2,59.0,31.03,NNE,13,5.0,9.0,61,0.00,,,0.00,meteohub,2013-07-10 03:47:00,
2013-07-09 23:52:00,73.4,59.2,31.03,NE,51,6.0,9.0,61,0.00,,,0.00,meteohub,2013-07-10 03:52:00,
2013-07-09 23:57:00,73.4,59.2,31.03,NNE,30,8.0,9.0,61,0.00,,,0.00,meteohub,2013-07-10 03:57:00,